Archiv-/Tagesdaten

--Timestamp---	Temp	Chill	HIndex	Humid	Dewpt	 Wind 	HiWind	WindDir	Rain 	Barom	Solar	 ET  	 UV 
--------------	----	-----	------	-----	-----	------	------	-------	-----	-----	-----	-----	----
20100907 00:00	9.7	9.7	9.7	75	5.5	3	8	68	0.0	1012.6	0	0.025	0.0
20100907 00:05	9.6	9.6	9.6	75	5.4	3	10	112	0.0	1012.4	0	0.000	0.0
20100907 00:10	9.6	9.6	9.6	75	5.4	2	8	112	0.0	1012.4	0	0.000	0.0
20100907 00:15	9.6	9.6	9.6	74	5.2	3	10	112	0.0	1012.4	0	0.000	0.0
20100907 00:20	9.7	9.7	9.7	75	5.5	2	6	135	0.0	1012.4	0	0.000	0.0
20100907 00:25	9.6	9.6	9.6	75	5.4	2	6	135	0.0	1012.4	0	0.000	0.0
20100907 00:30	9.6	9.6	9.6	75	5.3	2	5	135	0.0	1012.3	0	0.000	0.0
20100907 00:35	9.6	9.6	9.6	75	5.3	2	6	90	0.0	1012.3	0	0.000	0.0
20100907 00:40	9.6	9.6	9.6	75	5.3	3	10	68	0.0	1012.2	0	0.000	0.0
20100907 00:45	9.6	9.6	9.6	75	5.3	5	8	90	0.0	1012.2	0	0.000	0.0
20100907 00:50	9.6	9.6	9.6	75	5.3	3	8	68	0.0	1012.0	0	0.000	0.0
20100907 00:55	9.6	9.6	9.6	75	5.3	5	11	90	0.0	1012.1	0	0.000	0.0
20100907 01:00	9.6	9.6	9.6	75	5.3	2	6	68	0.0	1012.0	0	0.025	0.0
20100907 01:05	9.6	9.6	9.6	75	5.3	3	8	68	0.0	1011.8	0	0.000	0.0
20100907 01:10	9.5	9.5	9.5	75	5.3	3	6	135	0.0	1011.8	0	0.000	0.0
20100907 01:15	9.5	9.5	9.5	75	5.3	2	6	90	0.0	1011.9	0	0.000	0.0
20100907 01:20	9.5	9.5	9.5	75	5.3	2	8	90	0.0	1011.8	0	0.000	0.0
20100907 01:25	9.5	9.5	9.5	75	5.3	2	6	112	0.0	1011.8	0	0.000	0.0
20100907 01:30	9.5	9.5	9.5	75	5.3	5	10	112	0.0	1011.8	0	0.000	0.0
20100907 01:35	9.4	9.4	9.4	75	5.2	3	6	90	0.0	1011.7	0	0.000	0.0
20100907 01:40	9.4	9.4	9.4	76	5.4	2	5	112	0.0	1011.6	0	0.000	0.0
20100907 01:45	9.4	9.4	9.4	76	5.4	3	8	112	0.0	1011.6	0	0.000	0.0
20100907 01:50	9.3	9.3	9.3	76	5.3	3	8	90	0.0	1011.4	0	0.000	0.0
20100907 01:55	9.3	9.3	9.3	76	5.3	3	6	90	0.0	1011.4	0	0.000	0.0
20100907 02:00	9.3	9.3	9.3	76	5.3	3	6	90	0.0	1011.6	0	0.025	0.0
20100907 02:05	9.3	9.3	9.3	76	5.3	2	6	112	0.0	1011.6	0	0.000	0.0
20100907 02:10	9.2	9.2	9.2	77	5.4	2	6	112	0.0	1011.5	0	0.000	0.0
20100907 02:15	9.2	9.2	9.2	77	5.3	2	6	90	0.0	1011.4	0	0.000	0.0
20100907 02:20	9.2	9.2	9.2	77	5.3	2	6	90	0.0	1011.5	0	0.000	0.0
20100907 02:25	9.1	9.1	9.1	78	5.5	0	3	90	0.0	1011.6	0	0.000	0.0
20100907 02:30	9.1	9.1	9.1	78	5.4	0	3	90	0.0	1011.7	0	0.000	0.0
20100907 02:35	9.1	9.1	9.1	78	5.4	0	5	90	0.0	1011.7	0	0.000	0.0
20100907 02:40	9.1	9.1	9.1	78	5.4	0	2	90	0.0	1011.7	0	0.000	0.0
20100907 02:45	9.0	9.0	9.0	79	5.6	0	2	90	0.0	1011.7	0	0.000	0.0
20100907 02:50	9.0	9.0	9.0	79	5.6	0	0	-100000	0.0	1011.7	0	0.000	0.0
20100907 02:55	9.0	9.0	9.0	79	5.6	0	0	-100000	0.0	1011.6	0	0.000	0.0
20100907 03:00	8.9	8.9	8.9	79	5.5	0	0	-100000	0.0	1011.4	0	0.025	0.0
20100907 03:05	8.9	8.9	8.9	79	5.5	0	0	-100000	0.0	1011.4	0	0.000	0.0
20100907 03:10	8.9	8.9	8.9	79	5.5	0	0	-100000	0.0	1011.4	0	0.000	0.0
20100907 03:15	8.9	8.9	8.9	80	5.7	0	0	-100000	0.0	1011.4	0	0.000	0.0
20100907 03:20	8.9	8.9	8.9	80	5.7	0	2	90	0.0	1011.3	0	0.000	0.0
20100907 03:25	8.9	8.9	8.9	80	5.7	0	2	90	0.0	1011.2	0	0.000	0.0
20100907 03:30	8.9	8.9	8.9	80	5.6	0	2	90	0.0	1011.1	0	0.000	0.0
20100907 03:35	8.8	8.8	8.8	81	5.8	2	5	90	0.0	1010.9	0	0.000	0.0
20100907 03:40	8.8	8.8	8.8	81	5.7	0	3	90	0.0	1010.8	0	0.000	0.0
20100907 03:45	8.8	8.8	8.8	81	5.7	0	2	90	0.0	1010.8	0	0.000	0.0
20100907 03:50	8.7	8.7	8.7	82	5.8	0	3	90	0.0	1010.9	0	0.000	0.0
20100907 03:55	8.7	8.7	8.7	82	5.8	0	3	90	0.0	1010.8	0	0.000	0.0
20100907 04:00	8.7	8.7	8.7	82	5.8	0	3	90	0.0	1010.7	0	0.025	0.0
20100907 04:05	8.7	8.7	8.7	82	5.8	0	5	90	0.0	1010.6	0	0.000	0.0
20100907 04:10	8.7	8.7	8.7	82	5.8	0	3	90	0.0	1010.6	0	0.000	0.0
20100907 04:15	8.7	8.7	8.7	82	5.8	0	3	90	0.0	1010.6	0	0.000	0.0
20100907 04:20	8.7	8.7	8.7	83	5.9	0	5	90	0.0	1010.6	0	0.000	0.0
20100907 04:25	8.7	8.7	8.7	83	6.0	0	0	-100000	0.0	1010.5	0	0.000	0.0
20100907 04:30	8.7	8.7	8.7	82	5.8	3	6	90	0.0	1010.4	0	0.000	0.0
20100907 04:35	8.7	8.7	8.7	82	5.8	2	6	112	0.0	1010.3	0	0.000	0.0
20100907 04:40	8.7	8.7	8.7	82	5.8	5	10	135	0.0	1010.2	0	0.000	0.0
20100907 04:45	8.7	8.7	8.7	82	5.8	3	8	135	0.0	1010.2	0	0.000	0.0
20100907 04:50	8.7	8.7	8.7	82	5.8	3	8	135	0.0	1010.2	0	0.000	0.0
20100907 04:55	8.7	8.7	8.7	82	5.8	0	5	135	0.0	1010.2	0	0.000	0.0
20100907 05:00	8.7	8.7	8.7	82	5.8	2	6	135	0.0	1010.2	0	0.025	0.0
20100907 05:05	8.7	8.7	8.7	82	5.8	3	8	135	0.0	1010.3	0	0.000	0.0
20100907 05:10	8.7	8.7	8.7	82	5.8	2	6	135	0.0	1010.4	0	0.000	0.0
20100907 05:15	8.7	8.7	8.7	82	5.8	2	6	135	0.0	1010.3	0	0.000	0.0
20100907 05:20	8.7	8.7	8.7	82	5.8	5	10	135	0.0	1010.2	0	0.000	0.0
20100907 05:25	8.7	7.8	8.7	82	5.8	6	10	135	0.0	1010.1	0	0.000	0.0
20100907 05:30	8.7	8.7	8.7	82	5.8	5	8	135	0.0	1010.0	0	0.000	0.0
20100907 05:35	8.7	7.8	8.7	82	5.8	6	10	135	0.0	1010.1	0	0.000	0.0
20100907 05:40	8.7	8.7	8.7	82	5.8	3	6	135	0.0	1010.2	0	0.000	0.0
20100907 05:45	8.7	7.8	8.7	82	5.8	6	10	135	0.0	1010.0	0	0.000	0.0
20100907 05:50	8.7	8.7	8.7	82	5.8	2	6	135	0.0	1010.0	0	0.000	0.0
20100907 05:55	8.7	8.7	8.7	82	5.8	3	10	135	0.0	1010.0	0	0.000	0.0
20100907 06:00	8.7	8.7	8.7	82	5.8	5	10	112	0.0	1009.8	0	0.025	0.0
20100907 06:05	8.7	8.7	8.7	83	5.9	5	8	112	0.0	1009.8	0	0.000	0.0
20100907 06:10	8.6	8.6	8.6	83	5.9	5	11	135	0.0	1009.8	0	0.000	0.0
20100907 06:15	8.6	7.7	8.6	83	5.8	6	13	112	0.0	1009.7	0	0.000	0.0
20100907 06:20	8.6	7.7	8.6	83	5.8	6	11	135	0.0	1009.7	0	0.000	0.0
20100907 06:25	8.6	7.7	8.6	84	6.0	6	11	135	0.0	1009.6	0	0.000	0.0
20100907 06:30	8.6	7.7	8.6	84	6.0	6	14	135	0.0	1009.4	0	0.000	0.0
20100907 06:35	8.6	8.6	8.6	84	6.0	5	8	158	0.0	1009.4	0	0.000	0.0
20100907 06:40	8.6	8.6	8.6	84	6.0	5	8	135	0.0	1009.4	0	0.000	0.0
20100907 06:45	8.6	8.6	8.6	84	6.0	2	8	135	0.0	1009.4	0	0.000	0.0
20100907 06:50	8.6	8.6	8.6	84	6.0	3	8	135	0.0	1009.4	0	0.000	0.0
20100907 06:55	8.6	8.6	8.6	84	6.0	3	10	135	0.0	1009.4	5	0.000	0.0
20100907 07:00	8.6	8.6	8.6	84	6.1	3	8	112	0.0	1009.2	6	0.000	0.0
20100907 07:05	8.6	8.6	8.6	84	6.1	2	6	112	0.0	1009.4	9	0.000	0.0
20100907 07:10	8.7	8.7	8.7	84	6.1	3	8	90	0.0	1009.2	16	0.000	0.0
20100907 07:15	8.7	8.7	8.7	84	6.1	2	8	112	0.0	1009.1	23	0.000	0.0
20100907 07:20	8.7	8.7	8.7	84	6.2	3	6	112	0.0	1009.2	24	0.000	0.0
20100907 07:25	8.8	8.8	8.8	84	6.2	3	6	112	0.0	1009.4	22	0.000	0.0
20100907 07:30	8.8	8.8	8.8	84	6.3	2	5	112	0.0	1009.4	29	0.000	0.0
20100907 07:35	8.9	8.9	8.9	84	6.4	3	11	112	0.0	1009.3	33	0.000	0.0
20100907 07:40	9.0	9.0	9.0	84	6.4	3	8	90	0.0	1009.2	42	0.000	0.0
20100907 07:45	9.1	9.1	9.1	84	6.5	5	11	45	0.0	1009.2	40	0.000	0.0
20100907 07:50	9.1	9.1	9.1	84	6.5	2	5	45	0.0	1009.1	41	0.000	0.0
20100907 07:55	9.1	9.1	9.1	84	6.5	3	6	45	0.0	1009.0	48	0.000	0.0
20100907 08:00	9.1	9.1	9.1	84	6.5	2	6	68	0.0	1009.0	49	0.025	0.0
20100907 08:05	9.1	9.1	9.1	84	6.6	3	8	68	0.0	1009.2	54	0.000	0.0
20100907 08:10	9.2	9.2	9.2	84	6.6	3	8	90	0.0	1009.3	75	0.000	0.0
20100907 08:15	9.2	9.2	9.2	84	6.7	3	8	90	0.0	1009.2	87	0.000	0.0
20100907 08:20	9.3	9.3	9.3	83	6.6	2	6	135	0.0	1009.2	101	0.000	0.0
20100907 08:25	9.4	9.4	9.4	83	6.7	3	8	112	0.0	1009.1	108	0.000	0.0
20100907 08:30	9.6	9.6	9.6	83	6.8	3	8	112	0.0	1009.0	124	0.000	0.1
20100907 08:35	9.7	9.0	9.7	82	6.7	6	11	112	0.0	1009.0	116	0.000	0.5
20100907 08:40	9.8	9.8	9.8	82	6.9	3	10	135	0.0	1008.8	97	0.000	0.6
20100907 08:45	9.9	9.9	9.9	82	7.0	5	10	135	0.0	1008.7	109	0.000	0.7
20100907 08:50	10.1	10.1	10.1	81	6.9	6	13	112	0.0	1008.6	116	0.000	0.8
20100907 08:55	10.3	10.3	10.3	81	7.2	3	8	135	0.0	1008.6	113	0.000	0.8
20100907 09:00	10.6	10.6	10.6	80	7.2	5	8	112	0.0	1008.5	129	0.051	0.9
20100907 09:05	10.8	10.8	10.8	80	7.5	3	8	112	0.0	1008.5	152	0.000	1.0
20100907 09:10	11.0	11.0	11.0	79	7.5	5	8	135	0.0	1008.4	165	0.000	1.0
20100907 09:15	11.2	11.2	11.2	79	7.7	5	10	135	0.0	1008.5	148	0.000	1.1
20100907 09:20	11.4	11.4	11.4	78	7.7	5	10	135	0.0	1008.3	150	0.000	1.1
20100907 09:25	11.6	11.6	11.6	77	7.7	5	11	68	0.0	1008.2	145	0.000	1.2
20100907 09:30	11.7	11.7	11.7	77	7.8	3	8	90	0.0	1008.2	148	0.000	1.2
20100907 09:35	11.8	11.8	11.8	77	7.9	3	8	90	0.0	1008.3	167	0.000	1.3
20100907 09:40	12.1	12.1	12.1	77	8.1	5	8	135	0.0	1008.4	187	0.000	1.4
20100907 09:45	12.2	12.2	12.2	77	8.3	3	6	90	0.0	1008.4	178	0.000	1.4
20100907 09:50	12.5	12.5	12.5	77	8.6	5	16	135	0.0	1008.4	187	0.000	1.5
20100907 09:55	12.8	12.8	12.8	76	8.7	3	10	180	0.0	1008.2	257	0.000	1.7
20100907 10:00	12.9	12.9	12.9	74	8.4	6	11	112	0.0	1008.2	227	0.102	1.6
20100907 10:05	13.1	13.1	13.1	75	8.7	5	11	112	0.0	1008.1	187	0.000	1.5
20100907 10:10	13.1	13.1	13.1	75	8.8	5	10	135	0.0	1008.0	178	0.000	1.7
20100907 10:15	13.2	13.2	13.2	76	9.1	5	11	135	0.0	1008.0	154	0.000	1.7
20100907 10:20	13.4	13.4	13.4	75	9.0	5	11	112	0.0	1008.0	132	0.000	1.8
20100907 10:25	13.6	13.6	13.6	74	9.0	5	10	112	0.0	1008.0	132	0.000	1.9
20100907 10:30	13.6	13.6	13.6	74	9.1	5	10	112	0.0	1007.7	108	0.000	1.9
20100907 10:35	13.8	13.8	13.8	74	9.2	6	11	90	0.0	1007.7	111	0.000	2.0
20100907 10:40	14.1	14.1	14.1	74	9.5	6	14	90	0.0	1007.6	125	0.000	2.1
20100907 10:45	14.3	14.3	14.3	73	9.6	5	11	112	0.0	1007.7	194	0.000	2.4
20100907 10:50	14.7	14.7	14.7	72	9.7	6	11	135	0.0	1007.6	241	0.000	2.5
20100907 10:55	15.0	15.0	15.0	71	9.8	6	13	135	0.0	1007.4	238	0.000	2.4
20100907 11:00	15.1	15.1	15.1	69	9.4	6	16	68	0.0	1007.4	284	0.102	2.6
20100907 11:05	15.2	15.2	15.2	69	9.5	5	10	90	0.0	1007.4	345	0.000	2.7
20100907 11:10	15.4	15.4	15.4	70	10.0	5	10	112	0.0	1007.4	614	0.000	3.9
20100907 11:15	15.8	15.8	15.8	68	9.9	6	11	135	0.0	1007.3	804	0.000	4.4
20100907 11:20	15.9	15.9	15.9	67	9.8	6	18	112	0.0	1007.1	674	0.000	3.3
20100907 11:25	16.1	16.1	16.1	67	10.0	8	14	90	0.0	1007.2	680	0.000	4.1
20100907 11:30	16.3	16.3	16.3	67	10.1	6	11	68	0.0	1007.2	334	0.000	3.1
20100907 11:35	16.3	16.3	16.3	66	9.9	6	16	90	0.0	1007.1	370	0.000	3.1
20100907 11:40	16.5	16.5	16.5	66	10.1	6	11	90	0.0	1007.2	700	0.000	4.7
20100907 11:45	16.8	16.8	16.8	66	10.4	6	16	135	0.0	1007.2	829	0.000	4.4
20100907 11:50	16.9	16.9	16.9	66	10.5	6	11	90	0.0	1007.0	283	0.000	3.0
20100907 11:55	16.8	16.8	16.8	67	10.7	6	11	68	0.0	1007.2	238	0.000	3.0
20100907 12:00	16.9	16.9	16.9	66	10.5	8	14	68	0.0	1007.3	321	0.305	3.1
20100907 12:05	16.9	16.9	16.9	66	10.5	6	16	45	0.0	1007.3	369	0.000	3.3
20100907 12:10	16.9	16.9	16.9	66	10.5	8	14	68	0.0	1007.3	279	0.000	2.7
20100907 12:15	16.7	16.7	16.7	68	10.8	8	16	45	0.0	1007.3	246	0.000	2.4
20100907 12:20	16.5	16.5	16.5	68	10.6	8	14	68	0.0	1007.3	239	0.000	2.4
20100907 12:25	16.2	16.2	16.2	69	10.5	10	16	45	0.0	1007.3	239	0.000	2.4
20100907 12:30	16.0	16.0	16.0	70	10.5	13	19	22	0.0	1007.3	243	0.000	2.3
20100907 12:35	15.9	15.9	15.9	71	10.7	10	18	45	0.0	1007.3	244	0.000	2.3
20100907 12:40	15.9	15.9	15.9	70	10.5	10	18	45	0.0	1007.3	245	0.000	2.3
20100907 12:45	16.1	16.1	16.1	71	10.8	8	14	68	0.0	1007.3	337	0.000	3.3
20100907 12:50	16.3	16.3	16.3	70	10.8	10	18	45	0.0	1007.3	403	0.000	3.6
20100907 12:55	16.4	16.4	16.4	69	10.7	11	18	45	0.0	1007.3	392	0.000	3.6
20100907 13:00	16.6	16.6	16.6	69	10.8	10	16	45	0.0	1007.2	549	0.229	5.0
20100907 13:05	16.8	16.8	16.8	69	11.1	10	16	45	0.0	1007.1	745	0.000	5.6
20100907 13:10	17.2	17.2	17.2	68	11.2	8	18	90	0.0	1006.8	642	0.000	4.8
20100907 13:15	17.1	17.1	17.1	69	11.4	10	16	45	0.0	1006.8	487	0.000	4.3
20100907 13:20	17.3	17.3	17.3	68	11.3	10	16	68	0.0	1006.7	384	0.000	3.7
20100907 13:25	17.5	17.5	17.5	68	11.5	6	14	68	0.0	1006.8	525	0.000	4.2
20100907 13:30	17.8	17.8	17.8	67	11.6	6	11	90	0.0	1006.8	551	0.000	4.5
20100907 13:35	17.9	17.9	17.9	68	11.9	8	16	45	0.0	1006.7	497	0.000	4.4
20100907 13:40	17.9	17.9	17.9	68	11.9	8	16	68	0.0	1006.6	430	0.000	4.2
20100907 13:45	17.9	17.9	17.9	66	11.5	10	16	68	0.0	1006.7	340	0.000	3.4
20100907 13:50	17.8	17.8	17.8	67	11.6	10	18	45	0.0	1006.7	368	0.000	3.5
20100907 13:55	17.8	17.8	17.8	68	11.8	6	14	90	0.0	1006.7	364	0.000	3.3
20100907 14:00	18.0	18.0	18.0	67	11.8	6	11	68	0.0	1006.6	390	0.305	3.5
20100907 14:05	18.0	18.0	18.0	67	11.8	8	16	45	0.0	1006.6	353	0.000	3.2
20100907 14:10	18.0	18.0	18.0	67	11.8	6	11	68	0.0	1006.5	382	0.000	3.3
20100907 14:15	18.1	18.1	18.1	68	12.1	6	11	68	0.0	1006.6	335	0.000	3.0
20100907 14:20	18.2	18.2	18.2	67	11.9	5	10	68	0.0	1006.6	282	0.000	2.7
20100907 14:25	18.2	18.2	18.2	67	12.0	5	10	68	0.0	1006.6	285	0.000	2.6
20100907 14:30	18.2	18.2	18.2	67	11.9	8	14	68	0.0	1006.7	328	0.000	2.8
20100907 14:35	18.2	18.2	18.2	67	11.9	6	11	22	0.0	1006.7	384	0.000	3.1
20100907 14:40	18.3	18.3	18.3	67	12.0	8	14	68	0.0	1006.7	382	0.000	3.1
20100907 14:45	18.3	18.3	18.3	67	12.1	8	11	68	0.0	1006.7	286	0.000	2.7
20100907 14:50	18.3	18.3	18.3	67	12.1	5	11	90	0.0	1006.6	210	0.000	2.0
20100907 14:55	18.2	18.2	18.2	68	12.2	5	11	68	0.0	1006.6	202	0.000	1.8
20100907 15:00	18.1	18.1	18.1	68	12.1	8	13	68	0.0	1006.7	211	0.203	1.8
20100907 15:05	17.9	17.9	17.9	68	11.9	6	10	68	0.0	1006.7	206	0.000	1.8
20100907 15:10	17.9	17.9	17.9	68	11.9	6	14	68	0.0	1006.7	187	0.000	1.6
20100907 15:15	17.9	17.9	17.9	68	11.9	6	10	68	0.0	1006.7	171	0.000	1.4
20100907 15:20	17.8	17.8	17.8	69	12.1	5	10	68	0.0	1006.7	158	0.000	1.3
20100907 15:25	17.8	17.8	17.8	69	12.0	6	11	68	0.0	1006.6	149	0.000	1.2
20100907 15:30	17.6	17.6	17.6	70	12.1	6	11	45	0.0	1006.5	140	0.000	1.1
20100907 15:35	17.5	17.5	17.5	73	12.6	5	10	68	0.0	1006.6	139	0.000	1.1
20100907 15:40	17.4	17.4	17.4	73	12.5	5	11	68	0.0	1006.6	136	0.000	1.0
20100907 15:45	17.2	17.2	17.2	74	12.5	8	14	68	0.0	1006.6	135	0.000	1.0
20100907 15:50	17.1	17.1	17.1	74	12.4	6	16	68	0.0	1006.6	140	0.000	1.0
20100907 15:55	17.1	17.1	17.1	75	12.6	5	11	90	0.0	1006.7	153	0.000	1.1
20100907 16:00	17.0	17.0	17.0	76	12.7	3	8	90	0.0	1006.7	160	0.102	1.2
20100907 16:05	16.9	16.9	16.9	77	12.9	2	6	90	0.0	1006.6	145	0.000	1.0
20100907 16:10	16.9	16.9	16.9	78	13.1	3	8	90	0.0	1006.6	143	0.000	1.0
20100907 16:15	16.9	16.9	16.9	77	12.9	3	10	68	0.0	1006.6	138	0.000	1.0
20100907 16:20	16.9	16.9	16.9	77	12.8	3	8	90	0.0	1006.6	132	0.000	0.9
20100907 16:25	16.8	16.8	16.8	77	12.8	3	8	68	0.0	1006.6	136	0.000	0.9
20100907 16:30	16.8	16.8	16.8	77	12.7	3	10	90	0.0	1006.6	128	0.000	0.9
20100907 16:35	16.7	16.7	16.7	77	12.6	5	8	90	0.0	1006.6	107	0.000	0.7
20100907 16:40	16.7	16.7	16.7	77	12.6	2	6	90	0.0	1006.6	102	0.000	0.7
20100907 16:45	16.6	16.6	16.6	77	12.5	5	14	112	0.0	1006.6	101	0.000	0.6
20100907 16:50	16.5	16.5	16.5	77	12.5	3	8	135	0.0	1006.7	103	0.000	0.6
20100907 16:55	16.4	16.4	16.4	76	12.2	3	8	90	0.0	1006.8	98	0.000	0.6
20100907 17:00	16.4	16.4	16.4	76	12.2	2	6	90	0.0	1006.8	98	0.076	0.6
20100907 17:05	16.4	16.4	16.4	76	12.2	3	6	90	0.0	1006.8	94	0.000	0.5
20100907 17:10	16.4	16.4	16.4	77	12.3	3	8	90	0.0	1006.7	77	0.000	0.2
20100907 17:15	16.3	16.3	16.3	77	12.2	6	11	68	0.0	1006.8	59	0.000	0.0
20100907 17:20	16.2	16.2	16.2	78	12.3	5	11	68	0.0	1006.9	61	0.000	0.0
20100907 17:25	16.1	16.1	16.1	78	12.3	5	8	68	0.0	1007.0	55	0.000	0.0
20100907 17:30	16.0	16.0	16.0	79	12.4	3	8	68	0.0	1007.0	57	0.000	0.0
20100907 17:35	15.9	15.9	15.9	80	12.4	3	8	68	0.0	1006.9	65	0.000	0.0
20100907 17:40	15.8	15.8	15.8	80	12.3	6	11	68	0.0	1006.7	74	0.000	0.0
20100907 17:45	15.7	15.7	15.7	80	12.3	6	14	68	0.0	1006.5	70	0.000	0.0
20100907 17:50	15.6	15.6	15.6	80	12.2	6	11	68	0.0	1006.5	60	0.000	0.0
20100907 17:55	15.4	15.4	15.4	81	12.2	6	14	90	0.0	1006.4	51	0.000	0.0
20100907 18:00	15.3	15.3	15.3	81	12.1	6	11	90	0.0	1006.4	49	0.051	0.0
20100907 18:05	15.3	15.3	15.3	82	12.2	5	14	90	0.0	1006.4	46	0.000	0.0
20100907 18:10	15.2	15.2	15.2	82	12.2	5	10	90	0.0	1006.5	43	0.000	0.0
20100907 18:15	15.1	15.1	15.1	82	12.1	6	10	90	0.0	1006.5	42	0.000	0.0
20100907 18:20	15.1	15.1	15.1	82	12.0	5	11	90	0.0	1006.4	43	0.000	0.0
20100907 18:25	15.0	15.0	15.0	81	11.8	5	10	90	0.0	1006.5	34	0.000	0.0
20100907 18:30	15.0	15.0	15.0	81	11.8	5	10	90	0.0	1006.5	26	0.000	0.0
20100907 18:35	15.0	15.0	15.0	81	11.8	6	11	90	0.0	1006.5	25	0.000	0.0
20100907 18:40	15.0	15.0	15.0	80	11.6	8	14	90	0.0	1006.5	22	0.000	0.0
20100907 18:45	15.0	15.0	15.0	80	11.6	6	11	112	0.0	1006.5	20	0.000	0.0
20100907 18:50	14.9	14.9	14.9	80	11.5	5	11	90	0.0	1006.5	19	0.000	0.0
20100907 18:55	14.8	14.8	14.8	80	11.4	5	11	90	0.0	1006.6	22	0.000	0.0
20100907 19:00	14.8	14.8	14.8	80	11.4	3	8	112	0.0	1006.5	27	0.025	0.0
20100907 19:05	14.7	14.7	14.7	80	11.3	3	8	112	0.0	1006.5	25	0.000	0.0
20100907 19:10	14.7	14.7	14.7	80	11.3	5	11	90	0.0	1006.6	16	0.000	0.0
20100907 19:15	14.6	14.6	14.6	80	11.2	3	8	112	0.0	1006.6	9	0.000	0.0
20100907 19:20	14.6	14.6	14.6	80	11.1	3	11	90	0.0	1006.6	7	0.000	0.0
20100907 19:25	14.4	14.4	14.4	80	11.0	5	16	90	0.0	1006.6	2	0.000	0.0
20100907 19:30	14.4	14.4	14.4	80	11.0	3	8	90	0.0	1006.7	0	0.000	0.0
20100907 19:35	14.3	14.3	14.3	81	11.1	2	6	112	0.0	1006.7	0	0.000	0.0
20100907 19:40	14.3	14.3	14.3	81	11.1	5	10	90	0.0	1006.6	0	0.000	0.0
20100907 19:45	14.3	14.3	14.3	81	11.1	3	11	90	0.0	1006.7	0	0.000	0.0
20100907 19:50	14.2	14.2	14.2	81	11.0	3	10	135	0.0	1006.8	0	0.000	0.0
20100907 19:55	14.2	14.2	14.2	81	11.0	3	10	90	0.0	1006.9	0	0.000	0.0
20100907 20:00	14.1	14.1	14.1	82	11.1	3	10	112	0.0	1007.0	0	0.025	0.0
20100907 20:05	14.1	14.1	14.1	82	11.0	3	8	112	0.0	1006.8	0	0.000	0.0
20100907 20:10	14.0	14.0	14.0	82	11.0	2	8	112	0.0	1006.9	0	0.000	0.0
20100907 20:15	13.9	13.9	13.9	82	10.9	3	14	112	0.0	1006.9	0	0.000	0.0
20100907 20:20	13.9	13.9	13.9	82	10.9	3	6	90	0.0	1006.9	0	0.000	0.0
20100907 20:25	13.8	13.8	13.8	82	10.8	2	5	112	0.0	1006.9	0	0.000	0.0
20100907 20:30	13.8	13.8	13.8	82	10.8	3	8	112	0.0	1006.9	0	0.000	0.0
20100907 20:35	13.8	13.8	13.8	82	10.8	2	6	112	0.0	1007.0	0	0.000	0.0
20100907 20:40	13.7	13.7	13.7	82	10.7	5	11	135	0.0	1006.9	0	0.000	0.0
20100907 20:45	13.8	13.8	13.8	82	10.8	6	14	112	0.0	1006.9	0	0.000	0.0
20100907 20:50	13.7	13.7	13.7	82	10.7	3	8	90	0.0	1006.9	0	0.000	0.0
20100907 20:55	13.8	13.8	13.8	82	10.8	6	11	112	0.0	1006.9	0	0.000	0.0
20100907 21:00	13.7	13.7	13.7	82	10.7	6	11	90	0.0	1006.9	0	0.025	0.0
20100907 21:05	13.7	13.7	13.7	82	10.7	6	11	90	0.0	1006.7	0	0.000	0.0
20100907 21:10	13.7	13.7	13.7	81	10.5	8	18	90	0.0	1006.5	0	0.000	0.0
20100907 21:15	13.7	13.7	13.7	81	10.5	6	18	90	0.0	1006.4	0	0.000	0.0
20100907 21:20	13.6	13.6	13.6	82	10.6	6	13	90	0.0	1006.5	0	0.000	0.0
20100907 21:25	13.6	13.6	13.6	82	10.6	8	13	90	0.0	1006.4	0	0.000	0.0
20100907 21:30	13.6	13.6	13.6	82	10.6	8	16	90	0.0	1006.3	0	0.000	0.0
20100907 21:35	13.6	13.6	13.6	82	10.5	8	18	90	0.0	1006.3	0	0.000	0.0
20100907 21:40	13.6	13.6	13.6	82	10.5	8	16	90	0.0	1006.3	0	0.000	0.0
20100907 21:45	13.5	13.5	13.5	82	10.5	8	16	135	0.0	1006.3	0	0.000	0.0
20100907 21:50	13.4	13.4	13.4	82	10.4	8	14	90	0.0	1006.2	0	0.000	0.0
20100907 21:55	13.4	13.4	13.4	82	10.4	8	16	112	0.0	1006.2	0	0.000	0.0
20100907 22:00	13.3	13.3	13.3	83	10.5	6	16	90	0.0	1006.3	0	0.025	0.0
20100907 22:05	13.3	13.3	13.3	83	10.5	5	14	90	0.0	1006.3	0	0.000	0.0
20100907 22:10	13.2	13.2	13.2	83	10.4	5	8	90	0.0	1006.2	0	0.000	0.0
20100907 22:15	13.1	13.1	13.1	83	10.3	5	11	112	0.0	1006.1	0	0.000	0.0
20100907 22:20	13.0	13.0	13.0	84	10.4	6	14	90	0.0	1006.0	0	0.000	0.0
20100907 22:25	12.9	12.9	12.9	84	10.3	8	14	90	0.0	1005.8	0	0.000	0.0
20100907 22:30	12.8	12.8	12.8	84	10.2	5	11	90	0.0	1005.8	0	0.000	0.0
20100907 22:35	12.8	12.8	12.8	85	10.3	5	11	135	0.0	1005.8	0	0.000	0.0
20100907 22:40	12.8	12.8	12.8	85	10.3	2	8	90	0.0	1006.0	0	0.000	0.0
20100907 22:45	12.7	12.7	12.7	85	10.3	0	3	90	0.0	1006.1	0	0.000	0.0
20100907 22:50	12.7	12.7	12.7	85	10.2	0	5	90	0.0	1006.1	0	0.000	0.0
20100907 22:55	12.6	12.6	12.6	85	10.2	3	8	90	0.0	1005.9	0	0.000	0.0
20100907 23:00	12.6	12.6	12.6	85	10.1	3	8	90	0.0	1005.7	0	0.025	0.0
20100907 23:05	12.4	12.4	12.4	86	10.1	3	8	112	0.0	1005.6	0	0.000	0.0
20100907 23:10	12.3	12.3	12.3	86	10.0	5	10	68	0.0	1005.5	0	0.000	0.0
20100907 23:15	12.2	12.2	12.2	86	9.9	5	11	68	0.0	1005.5	0	0.000	0.0
20100907 23:20	12.2	12.2	12.2	86	9.9	5	10	90	0.0	1005.4	0	0.000	0.0
20100907 23:25	12.1	12.1	12.1	86	9.8	6	11	112	0.0	1005.4	0	0.000	0.0
20100907 23:30	12.1	12.1	12.1	87	10.0	5	11	112	0.0	1005.3	0	0.000	0.0
20100907 23:35	12.0	12.0	12.0	87	9.9	3	10	135	0.0	1005.5	0	0.000	0.0
20100907 23:40	11.9	11.9	11.9	87	9.8	2	6	135	0.0	1005.4	0	0.000	0.0
20100907 23:45	11.9	11.9	11.9	87	9.8	5	14	135	0.0	1005.3	0	0.000	0.0
20100907 23:50	11.8	11.8	11.8	87	9.7	5	13	135	0.0	1005.5	0	0.000	0.0
20100907 23:55	11.8	11.8	11.8	87	9.7	3	10	90	0.0	1005.5	0	0.000	0.0



Please note the license to use and transfer of this data:
http://creativecommons.org/licenses/by-nc-sa/3.0/deed.en

Bitte beachten sie die Lizenz zur Verwertung und Weitergabe der Daten:
http://creativecommons.org/licenses/by-nc-sa/3.0/deed.de

zurück zur Übersicht der Archivdaten (Monats und Tagesdaten)

Cookies helfen bei der Bereitstellung von Inhalten. Durch die Nutzung dieser Seiten erklärst du dich damit einverstanden, dass Cookies auf deinem Rechner gespeichert werden. Weitere Information